sensor_id;sensor_type;location;lat;lon;timestamp;P1;durP1;ratioP1;P2;durP2;ratioP2
60700;SDS011;46541;49.894;10.886;2023-04-06T00:01:20;10.82;;;5.57;;
60700;SDS011;46541;49.894;10.886;2023-04-06T00:03:46;11.05;;;5.50;;
60700;SDS011;46541;49.894;10.886;2023-04-06T00:06:14;12.25;;;6.15;;
60700;SDS011;46541;49.894;10.886;2023-04-06T00:08:42;10.45;;;5.85;;
60700;SDS011;46541;49.894;10.886;2023-04-06T00:11:10;13.13;;;5.75;;
60700;SDS011;46541;49.894;10.886;2023-04-06T00:13:37;10.18;;;5.22;;
60700;SDS011;46541;49.894;10.886;2023-04-06T00:16:04;8.07;;;5.00;;
60700;SDS011;46541;49.894;10.886;2023-04-06T00:18:31;12.48;;;5.75;;
60700;SDS011;46541;49.894;10.886;2023-04-06T00:20:58;9.98;;;5.72;;
60700;SDS011;46541;49.894;10.886;2023-04-06T00:23:25;7.68;;;4.85;;
60700;SDS011;46541;49.894;10.886;2023-04-06T00:25:52;11.70;;;5.47;;
60700;SDS011;46541;49.894;10.886;2023-04-06T00:28:19;10.52;;;5.25;;
60700;SDS011;46541;49.894;10.886;2023-04-06T00:30:54;19.30;;;6.07;;
60700;SDS011;46541;49.894;10.886;2023-04-06T00:33:21;10.50;;;5.90;;
60700;SDS011;46541;49.894;10.886;2023-04-06T00:35:49;10.15;;;5.57;;
60700;SDS011;46541;49.894;10.886;2023-04-06T00:38:16;12.02;;;5.43;;
60700;SDS011;46541;49.894;10.886;2023-04-06T00:40:43;9.18;;;4.85;;
60700;SDS011;46541;49.894;10.886;2023-04-06T00:43:13;11.80;;;5.57;;
60700;SDS011;46541;49.894;10.886;2023-04-06T00:45:41;6.97;;;4.80;;
60700;SDS011;46541;49.894;10.886;2023-04-06T00:48:08;10.52;;;5.25;;
60700;SDS011;46541;49.894;10.886;2023-04-06T00:50:35;8.80;;;4.55;;
60700;SDS011;46541;49.894;10.886;2023-04-06T00:53:02;7.70;;;4.35;;
60700;SDS011;46541;49.894;10.886;2023-04-06T00:55:29;9.75;;;5.90;;
60700;SDS011;46541;49.894;10.886;2023-04-06T00:57:56;9.27;;;5.30;;
60700;SDS011;46541;49.894;10.886;2023-04-06T01:00:25;10.05;;;4.95;;
60700;SDS011;46541;49.894;10.886;2023-04-06T01:02:52;11.63;;;4.70;;
60700;SDS011;46541;49.894;10.886;2023-04-06T01:05:19;9.45;;;5.07;;
60700;SDS011;46541;49.894;10.886;2023-04-06T01:07:46;8.95;;;5.25;;
60700;SDS011;46541;49.894;10.886;2023-04-06T01:10:22;9.23;;;5.25;;
60700;SDS011;46541;49.894;10.886;2023-04-06T01:12:50;16.60;;;5.85;;
60700;SDS011;46541;49.894;10.886;2023-04-06T01:15:16;8.65;;;5.22;;
60700;SDS011;46541;49.894;10.886;2023-04-06T01:17:43;13.18;;;5.22;;
60700;SDS011;46541;49.894;10.886;2023-04-06T01:20:10;11.75;;;6.28;;
60700;SDS011;46541;49.894;10.886;2023-04-06T01:22:37;8.95;;;5.13;;
60700;SDS011;46541;49.894;10.886;2023-04-06T01:25:04;7.93;;;4.97;;
60700;SDS011;46541;49.894;10.886;2023-04-06T01:27:31;8.95;;;5.38;;
60700;SDS011;46541;49.894;10.886;2023-04-06T01:29:58;7.78;;;4.85;;
60700;SDS011;46541;49.894;10.886;2023-04-06T01:32:25;8.85;;;4.88;;
60700;SDS011;46541;49.894;10.886;2023-04-06T01:34:52;9.60;;;5.25;;
60700;SDS011;46541;49.894;10.886;2023-04-06T01:37:20;8.27;;;4.50;;
60700;SDS011;46541;49.894;10.886;2023-04-06T01:39:47;9.80;;;5.22;;
60700;SDS011;46541;49.894;10.886;2023-04-06T01:42:14;10.68;;;5.45;;
60700;SDS011;46541;49.894;10.886;2023-04-06T01:44:41;13.13;;;5.82;;
60700;SDS011;46541;49.894;10.886;2023-04-06T01:47:07;7.97;;;4.93;;
60700;SDS011;46541;49.894;10.886;2023-04-06T01:49:34;8.77;;;5.18;;
60700;SDS011;46541;49.894;10.886;2023-04-06T01:52:01;8.52;;;4.97;;
60700;SDS011;46541;49.894;10.886;2023-04-06T01:54:27;7.78;;;5.18;;
60700;SDS011;46541;49.894;10.886;2023-04-06T01:56:54;8.07;;;5.03;;
60700;SDS011;46541;49.894;10.886;2023-04-06T01:59:21;8.85;;;5.38;;
60700;SDS011;46541;49.894;10.886;2023-04-06T02:01:48;8.23;;;5.15;;
60700;SDS011;46541;49.894;10.886;2023-04-06T02:04:14;8.80;;;5.53;;
60700;SDS011;46541;49.894;10.886;2023-04-06T02:06:41;14.60;;;6.47;;
60700;SDS011;46541;49.894;10.886;2023-04-06T02:09:08;10.45;;;5.57;;
60700;SDS011;46541;49.894;10.886;2023-04-06T02:11:35;10.40;;;5.28;;
60700;SDS011;46541;49.894;10.886;2023-04-06T02:14:02;11.50;;;5.90;;
60700;SDS011;46541;49.894;10.886;2023-04-06T02:16:29;13.60;;;6.13;;
60700;SDS011;46541;49.894;10.886;2023-04-06T02:18:55;10.43;;;6.13;;
60700;SDS011;46541;49.894;10.886;2023-04-06T02:21:22;9.63;;;5.88;;
60700;SDS011;46541;49.894;10.886;2023-04-06T02:23:49;15.07;;;6.43;;
60700;SDS011;46541;49.894;10.886;2023-04-06T02:26:16;11.30;;;6.60;;
60700;SDS011;46541;49.894;10.886;2023-04-06T02:28:42;12.88;;;6.50;;
60700;SDS011;46541;49.894;10.886;2023-04-06T02:31:09;12.13;;;6.13;;
60700;SDS011;46541;49.894;10.886;2023-04-06T02:33:37;11.73;;;6.28;;
60700;SDS011;46541;49.894;10.886;2023-04-06T02:36:04;12.77;;;6.85;;
60700;SDS011;46541;49.894;10.886;2023-04-06T02:38:31;13.45;;;7.97;;
60700;SDS011;46541;49.894;10.886;2023-04-06T02:40:58;14.38;;;6.40;;
60700;SDS011;46541;49.894;10.886;2023-04-06T02:43:24;10.57;;;6.38;;
60700;SDS011;46541;49.894;10.886;2023-04-06T02:45:51;12.82;;;6.78;;
60700;SDS011;46541;49.894;10.886;2023-04-06T02:48:18;10.07;;;5.90;;
60700;SDS011;46541;49.894;10.886;2023-04-06T02:50:45;13.23;;;6.45;;
60700;SDS011;46541;49.894;10.886;2023-04-06T02:53:11;11.35;;;6.30;;
60700;SDS011;46541;49.894;10.886;2023-04-06T02:55:38;13.15;;;7.20;;
60700;SDS011;46541;49.894;10.886;2023-04-06T02:58:05;12.90;;;6.00;;
60700;SDS011;46541;49.894;10.886;2023-04-06T03:00:32;11.60;;;6.40;;
60700;SDS011;46541;49.894;10.886;2023-04-06T03:02:58;12.20;;;6.40;;
60700;SDS011;46541;49.894;10.886;2023-04-06T03:05:25;13.57;;;7.40;;
60700;SDS011;46541;49.894;10.886;2023-04-06T03:07:52;12.38;;;6.55;;
60700;SDS011;46541;49.894;10.886;2023-04-06T03:10:19;12.95;;;6.90;;
60700;SDS011;46541;49.894;10.886;2023-04-06T03:12:46;14.05;;;7.00;;
60700;SDS011;46541;49.894;10.886;2023-04-06T03:15:12;10.77;;;6.40;;
60700;SDS011;46541;49.894;10.886;2023-04-06T03:17:39;22.98;;;7.75;;
60700;SDS011;46541;49.894;10.886;2023-04-06T03:20:07;11.43;;;6.47;;
60700;SDS011;46541;49.894;10.886;2023-04-06T03:22:34;16.75;;;6.55;;
60700;SDS011;46541;49.894;10.886;2023-04-06T03:25:00;10.10;;;6.38;;
60700;SDS011;46541;49.894;10.886;2023-04-06T03:27:29;9.57;;;5.90;;
60700;SDS011;46541;49.894;10.886;2023-04-06T03:29:55;12.68;;;6.25;;
60700;SDS011;46541;49.894;10.886;2023-04-06T03:32:22;15.07;;;6.75;;
60700;SDS011;46541;49.894;10.886;2023-04-06T03:34:49;10.68;;;6.70;;
60700;SDS011;46541;49.894;10.886;2023-04-06T03:37:16;13.82;;;6.95;;
60700;SDS011;46541;49.894;10.886;2023-04-06T03:39:43;12.48;;;6.32;;
60700;SDS011;46541;49.894;10.886;2023-04-06T03:42:09;13.52;;;6.97;;
60700;SDS011;46541;49.894;10.886;2023-04-06T03:44:36;9.93;;;6.47;;
60700;SDS011;46541;49.894;10.886;2023-04-06T03:47:03;11.75;;;5.95;;
60700;SDS011;46541;49.894;10.886;2023-04-06T03:49:30;14.20;;;7.40;;
60700;SDS011;46541;49.894;10.886;2023-04-06T03:51:56;9.85;;;6.00;;
60700;SDS011;46541;49.894;10.886;2023-04-06T03:54:23;11.10;;;6.03;;
60700;SDS011;46541;49.894;10.886;2023-04-06T03:56:50;11.65;;;5.78;;
60700;SDS011;46541;49.894;10.886;2023-04-06T03:59:17;14.43;;;6.55;;
60700;SDS011;46541;49.894;10.886;2023-04-06T04:01:43;12.73;;;6.20;;
60700;SDS011;46541;49.894;10.886;2023-04-06T04:04:10;12.13;;;6.22;;
60700;SDS011;46541;49.894;10.886;2023-04-06T04:06:37;15.02;;;6.35;;
60700;SDS011;46541;49.894;10.886;2023-04-06T04:09:04;13.98;;;6.82;;
60700;SDS011;46541;49.894;10.886;2023-04-06T04:11:30;11.70;;;5.75;;
60700;SDS011;46541;49.894;10.886;2023-04-06T04:13:57;10.40;;;6.45;;
60700;SDS011;46541;49.894;10.886;2023-04-06T04:16:24;10.82;;;6.20;;
60700;SDS011;46541;49.894;10.886;2023-04-06T04:18:51;12.93;;;7.28;;
60700;SDS011;46541;49.894;10.886;2023-04-06T04:21:18;15.93;;;6.55;;
60700;SDS011;46541;49.894;10.886;2023-04-06T04:23:44;9.73;;;6.28;;
60700;SDS011;46541;49.894;10.886;2023-04-06T04:26:11;11.25;;;6.35;;
60700;SDS011;46541;49.894;10.886;2023-04-06T04:28:38;16.77;;;7.22;;
60700;SDS011;46541;49.894;10.886;2023-04-06T04:31:05;11.85;;;6.57;;
60700;SDS011;46541;49.894;10.886;2023-04-06T04:33:32;11.25;;;6.85;;
60700;SDS011;46541;49.894;10.886;2023-04-06T04:35:58;11.75;;;6.82;;
60700;SDS011;46541;49.894;10.886;2023-04-06T04:38:25;10.07;;;6.43;;
60700;SDS011;46541;49.894;10.886;2023-04-06T04:40:52;11.07;;;6.15;;
60700;SDS011;46541;49.894;10.886;2023-04-06T04:43:19;10.02;;;6.07;;
60700;SDS011;46541;49.894;10.886;2023-04-06T04:45:46;11.73;;;6.60;;
60700;SDS011;46541;49.894;10.886;2023-04-06T04:48:13;12.15;;;6.10;;
60700;SDS011;46541;49.894;10.886;2023-04-06T04:50:39;11.25;;;6.05;;
60700;SDS011;46541;49.894;10.886;2023-04-06T04:53:06;12.40;;;6.15;;
60700;SDS011;46541;49.894;10.886;2023-04-06T04:55:33;13.02;;;7.28;;
60700;SDS011;46541;49.894;10.886;2023-04-06T04:58:00;11.75;;;6.78;;
60700;SDS011;46541;49.894;10.886;2023-04-06T05:00:28;14.55;;;7.63;;
60700;SDS011;46541;49.894;10.886;2023-04-06T05:02:55;15.27;;;8.07;;
60700;SDS011;46541;49.894;10.886;2023-04-06T05:05:22;10.68;;;6.80;;
60700;SDS011;46541;49.894;10.886;2023-04-06T05:07:49;12.05;;;7.25;;
60700;SDS011;46541;49.894;10.886;2023-04-06T05:10:16;11.32;;;7.43;;
60700;SDS011;46541;49.894;10.886;2023-04-06T05:12:42;14.43;;;7.82;;
60700;SDS011;46541;49.894;10.886;2023-04-06T05:15:09;17.85;;;8.27;;
60700;SDS011;46541;49.894;10.886;2023-04-06T05:17:36;13.77;;;7.95;;
60700;SDS011;46541;49.894;10.886;2023-04-06T05:20:03;16.17;;;8.55;;
60700;SDS011;46541;49.894;10.886;2023-04-06T05:22:31;21.33;;;9.77;;
60700;SDS011;46541;49.894;10.886;2023-04-06T05:24:58;15.52;;;9.02;;
60700;SDS011;46541;49.894;10.886;2023-04-06T05:27:24;19.05;;;9.15;;
60700;SDS011;46541;49.894;10.886;2023-04-06T05:29:51;18.67;;;8.95;;
60700;SDS011;46541;49.894;10.886;2023-04-06T05:32:20;19.88;;;9.20;;
60700;SDS011;46541;49.894;10.886;2023-04-06T05:34:48;17.05;;;8.90;;
60700;SDS011;46541;49.894;10.886;2023-04-06T05:37:16;26.75;;;10.88;;
60700;SDS011;46541;49.894;10.886;2023-04-06T05:39:42;25.70;;;9.70;;
60700;SDS011;46541;49.894;10.886;2023-04-06T05:42:09;18.50;;;8.70;;
60700;SDS011;46541;49.894;10.886;2023-04-06T05:44:37;15.18;;;7.57;;
60700;SDS011;46541;49.894;10.886;2023-04-06T05:47:04;18.05;;;8.63;;
60700;SDS011;46541;49.894;10.886;2023-04-06T05:49:31;13.07;;;6.68;;
60700;SDS011;46541;49.894;10.886;2023-04-06T05:51:58;14.82;;;8.35;;
60700;SDS011;46541;49.894;10.886;2023-04-06T05:54:24;17.70;;;9.45;;
60700;SDS011;46541;49.894;10.886;2023-04-06T05:56:52;16.27;;;8.82;;
60700;SDS011;46541;49.894;10.886;2023-04-06T05:59:19;16.80;;;7.68;;
60700;SDS011;46541;49.894;10.886;2023-04-06T06:01:46;18.25;;;8.30;;
60700;SDS011;46541;49.894;10.886;2023-04-06T06:04:13;15.85;;;7.90;;
60700;SDS011;46541;49.894;10.886;2023-04-06T06:06:40;18.95;;;8.18;;
60700;SDS011;46541;49.894;10.886;2023-04-06T06:09:07;17.25;;;8.57;;
60700;SDS011;46541;49.894;10.886;2023-04-06T06:11:34;17.67;;;8.70;;
60700;SDS011;46541;49.894;10.886;2023-04-06T06:14:01;18.17;;;8.02;;
60700;SDS011;46541;49.894;10.886;2023-04-06T06:16:28;16.73;;;9.10;;
60700;SDS011;46541;49.894;10.886;2023-04-06T06:18:54;19.95;;;8.65;;
60700;SDS011;46541;49.894;10.886;2023-04-06T06:21:22;20.35;;;9.10;;
60700;SDS011;46541;49.894;10.886;2023-04-06T06:23:48;17.95;;;8.93;;
60700;SDS011;46541;49.894;10.886;2023-04-06T06:26:16;17.13;;;9.35;;
60700;SDS011;46541;49.894;10.886;2023-04-06T06:28:43;16.27;;;9.18;;
60700;SDS011;46541;49.894;10.886;2023-04-06T06:31:10;21.35;;;8.40;;
60700;SDS011;46541;49.894;10.886;2023-04-06T06:33:36;21.60;;;9.38;;
60700;SDS011;46541;49.894;10.886;2023-04-06T06:36:03;19.85;;;9.30;;
60700;SDS011;46541;49.894;10.886;2023-04-06T06:38:30;21.70;;;8.77;;
60700;SDS011;46541;49.894;10.886;2023-04-06T06:40:57;23.17;;;9.05;;
60700;SDS011;46541;49.894;10.886;2023-04-06T06:43:24;16.90;;;8.70;;
60700;SDS011;46541;49.894;10.886;2023-04-06T06:45:51;20.88;;;10.07;;
60700;SDS011;46541;49.894;10.886;2023-04-06T06:48:17;20.00;;;8.90;;
60700;SDS011;46541;49.894;10.886;2023-04-06T06:50:44;18.48;;;8.77;;
60700;SDS011;46541;49.894;10.886;2023-04-06T06:53:14;20.80;;;9.63;;
60700;SDS011;46541;49.894;10.886;2023-04-06T06:55:41;18.25;;;9.55;;
60700;SDS011;46541;49.894;10.886;2023-04-06T06:58:10;16.15;;;8.77;;
60700;SDS011;46541;49.894;10.886;2023-04-06T07:00:37;20.15;;;8.48;;
60700;SDS011;46541;49.894;10.886;2023-04-06T07:03:03;17.92;;;8.88;;
60700;SDS011;46541;49.894;10.886;2023-04-06T07:05:31;19.15;;;8.85;;
60700;SDS011;46541;49.894;10.886;2023-04-06T07:07:58;17.60;;;8.70;;
60700;SDS011;46541;49.894;10.886;2023-04-06T07:10:25;14.77;;;8.90;;
60700;SDS011;46541;49.894;10.886;2023-04-06T07:12:52;20.17;;;9.00;;
60700;SDS011;46541;49.894;10.886;2023-04-06T07:15:19;17.67;;;8.38;;
60700;SDS011;46541;49.894;10.886;2023-04-06T07:17:46;17.77;;;8.32;;
60700;SDS011;46541;49.894;10.886;2023-04-06T07:20:13;17.23;;;7.82;;
60700;SDS011;46541;49.894;10.886;2023-04-06T07:22:41;15.25;;;7.95;;
60700;SDS011;46541;49.894;10.886;2023-04-06T07:25:09;16.67;;;8.32;;
60700;SDS011;46541;49.894;10.886;2023-04-06T07:27:36;16.38;;;7.82;;
60700;SDS011;46541;49.894;10.886;2023-04-06T07:30:03;16.40;;;7.13;;
60700;SDS011;46541;49.894;10.886;2023-04-06T07:32:30;13.68;;;7.43;;
60700;SDS011;46541;49.894;10.886;2023-04-06T07:34:57;14.18;;;6.78;;
60700;SDS011;46541;49.894;10.886;2023-04-06T07:37:24;14.07;;;6.32;;
60700;SDS011;46541;49.894;10.886;2023-04-06T07:39:51;11.23;;;6.03;;
60700;SDS011;46541;49.894;10.886;2023-04-06T07:42:18;10.00;;;5.93;;
60700;SDS011;46541;49.894;10.886;2023-04-06T07:44:44;11.20;;;5.53;;
60700;SDS011;46541;49.894;10.886;2023-04-06T07:47:11;10.88;;;5.70;;
60700;SDS011;46541;49.894;10.886;2023-04-06T07:49:38;9.65;;;5.50;;
60700;SDS011;46541;49.894;10.886;2023-04-06T07:52:05;7.22;;;4.93;;
60700;SDS011;46541;49.894;10.886;2023-04-06T07:54:31;11.15;;;4.70;;
60700;SDS011;46541;49.894;10.886;2023-04-06T07:56:58;9.70;;;5.35;;
60700;SDS011;46541;49.894;10.886;2023-04-06T07:59:25;11.43;;;5.22;;
60700;SDS011;46541;49.894;10.886;2023-04-06T08:01:52;8.52;;;4.45;;
60700;SDS011;46541;49.894;10.886;2023-04-06T08:04:20;9.05;;;4.18;;
60700;SDS011;46541;49.894;10.886;2023-04-06T08:06:46;9.32;;;4.93;;
60700;SDS011;46541;49.894;10.886;2023-04-06T08:09:13;8.40;;;4.82;;
60700;SDS011;46541;49.894;10.886;2023-04-06T08:11:40;10.57;;;5.55;;
60700;SDS011;46541;49.894;10.886;2023-04-06T08:14:07;10.63;;;5.53;;
60700;SDS011;46541;49.894;10.886;2023-04-06T08:16:34;11.68;;;4.97;;
60700;SDS011;46541;49.894;10.886;2023-04-06T08:19:01;8.55;;;4.65;;
60700;SDS011;46541;49.894;10.886;2023-04-06T08:21:27;11.27;;;6.68;;
60700;SDS011;46541;49.894;10.886;2023-04-06T08:23:54;9.52;;;5.40;;
60700;SDS011;46541;49.894;10.886;2023-04-06T08:26:21;11.95;;;5.07;;
60700;SDS011;46541;49.894;10.886;2023-04-06T08:28:48;8.95;;;4.60;;
60700;SDS011;46541;49.894;10.886;2023-04-06T08:31:14;9.93;;;4.75;;
60700;SDS011;46541;49.894;10.886;2023-04-06T08:33:41;9.63;;;5.00;;
60700;SDS011;46541;49.894;10.886;2023-04-06T08:36:09;9.18;;;5.20;;
60700;SDS011;46541;49.894;10.886;2023-04-06T08:38:37;14.85;;;5.63;;
60700;SDS011;46541;49.894;10.886;2023-04-06T08:41:11;13.60;;;5.68;;
60700;SDS011;46541;49.894;10.886;2023-04-06T08:43:46;11.25;;;6.28;;
60700;SDS011;46541;49.894;10.886;2023-04-06T08:46:15;17.23;;;10.02;;
60700;SDS011;46541;49.894;10.886;2023-04-06T08:48:42;9.73;;;5.90;;
60700;SDS011;46541;49.894;10.886;2023-04-06T08:51:09;14.10;;;6.82;;
60700;SDS011;46541;49.894;10.886;2023-04-06T08:53:37;15.20;;;7.18;;
60700;SDS011;46541;49.894;10.886;2023-04-06T08:56:04;14.52;;;7.20;;
60700;SDS011;46541;49.894;10.886;2023-04-06T08:58:35;20.52;;;7.38;;
60700;SDS011;46541;49.894;10.886;2023-04-06T09:01:08;14.10;;;7.13;;
60700;SDS011;46541;49.894;10.886;2023-04-06T09:03:38;18.67;;;7.97;;
60700;SDS011;46541;49.894;10.886;2023-04-06T09:06:07;11.35;;;7.00;;
60700;SDS011;46541;49.894;10.886;2023-04-06T09:08:35;11.23;;;6.40;;
60700;SDS011;46541;49.894;10.886;2023-04-06T09:11:04;9.38;;;5.75;;
60700;SDS011;46541;49.894;10.886;2023-04-06T09:13:31;11.63;;;7.43;;
60700;SDS011;46541;49.894;10.886;2023-04-06T09:16:09;12.82;;;6.80;;
60700;SDS011;46541;49.894;10.886;2023-04-06T09:18:36;30.52;;;9.95;;
60700;SDS011;46541;49.894;10.886;2023-04-06T09:21:04;28.83;;;14.63;;
60700;SDS011;46541;49.894;10.886;2023-04-06T09:23:32;26.05;;;9.88;;
60700;SDS011;46541;49.894;10.886;2023-04-06T09:26:12;12.90;;;6.85;;
60700;SDS011;46541;49.894;10.886;2023-04-06T09:28:47;10.60;;;6.32;;
60700;SDS011;46541;49.894;10.886;2023-04-06T09:31:16;24.13;;;13.00;;
60700;SDS011;46541;49.894;10.886;2023-04-06T09:33:54;14.30;;;7.00;;
60700;SDS011;46541;49.894;10.886;2023-04-06T09:38:58;35.05;;;18.15;;
60700;SDS011;46541;49.894;10.886;2023-04-06T09:44:15;17.65;;;8.32;;
60700;SDS011;46541;49.894;10.886;2023-04-06T09:46:42;14.27;;;6.60;;
60700;SDS011;46541;49.894;10.886;2023-04-06T09:49:28;30.50;;;10.93;;
60700;SDS011;46541;49.894;10.886;2023-04-06T09:51:59;15.13;;;8.68;;
60700;SDS011;46541;49.894;10.886;2023-04-06T09:54:29;13.98;;;7.30;;
60700;SDS011;46541;49.894;10.886;2023-04-06T10:02:37;21.35;;;9.35;;
60700;SDS011;46541;49.894;10.886;2023-04-06T10:05:16;18.25;;;11.30;;
60700;SDS011;46541;49.894;10.886;2023-04-06T10:07:53;18.77;;;9.40;;
60700;SDS011;46541;49.894;10.886;2023-04-06T10:10:27;27.98;;;12.88;;
60700;SDS011;46541;49.894;10.886;2023-04-06T10:12:55;11.70;;;7.05;;
60700;SDS011;46541;49.894;10.886;2023-04-06T10:15:22;12.07;;;7.72;;
60700;SDS011;46541;49.894;10.886;2023-04-06T10:17:50;17.02;;;9.65;;
60700;SDS011;46541;49.894;10.886;2023-04-06T10:20:21;8.20;;;6.00;;
60700;SDS011;46541;49.894;10.886;2023-04-06T10:22:58;9.77;;;7.05;;
60700;SDS011;46541;49.894;10.886;2023-04-06T10:25:40;10.65;;;7.25;;
60700;SDS011;46541;49.894;10.886;2023-04-06T10:28:23;14.25;;;7.88;;
60700;SDS011;46541;49.894;10.886;2023-04-06T10:30:58;14.40;;;9.10;;
60700;SDS011;46541;49.894;10.886;2023-04-06T10:33:26;17.15;;;10.23;;
60700;SDS011;46541;49.894;10.886;2023-04-06T10:35:53;17.00;;;8.57;;
60700;SDS011;46541;49.894;10.886;2023-04-06T10:38:32;13.23;;;8.38;;
60700;SDS011;46541;49.894;10.886;2023-04-06T10:41:06;14.98;;;9.07;;
60700;SDS011;46541;49.894;10.886;2023-04-06T10:43:34;13.88;;;6.78;;
60700;SDS011;46541;49.894;10.886;2023-04-06T10:46:04;11.68;;;6.68;;
60700;SDS011;46541;49.894;10.886;2023-04-06T10:48:42;9.32;;;6.32;;
60700;SDS011;46541;49.894;10.886;2023-04-06T10:51:11;8.20;;;5.63;;
60700;SDS011;46541;49.894;10.886;2023-04-06T10:53:46;6.82;;;5.00;;
60700;SDS011;46541;49.894;10.886;2023-04-06T10:56:15;8.82;;;5.93;;
60700;SDS011;46541;49.894;10.886;2023-04-06T10:58:43;10.15;;;6.75;;
60700;SDS011;46541;49.894;10.886;2023-04-06T11:01:13;12.00;;;6.53;;
60700;SDS011;46541;49.894;10.886;2023-04-06T11:03:46;11.48;;;7.90;;
60700;SDS011;46541;49.894;10.886;2023-04-06T11:06:17;10.32;;;7.07;;
60700;SDS011;46541;49.894;10.886;2023-04-06T11:08:46;10.80;;;7.13;;
60700;SDS011;46541;49.894;10.886;2023-04-06T11:11:13;10.80;;;6.88;;
60700;SDS011;46541;49.894;10.886;2023-04-06T11:13:52;9.48;;;6.70;;
60700;SDS011;46541;49.894;10.886;2023-04-06T11:16:20;10.00;;;6.85;;
60700;SDS011;46541;49.894;10.886;2023-04-06T11:19:05;9.50;;;7.00;;
60700;SDS011;46541;49.894;10.886;2023-04-06T11:21:36;7.55;;;6.05;;
60700;SDS011;46541;49.894;10.886;2023-04-06T11:26:36;9.77;;;6.78;;
60700;SDS011;46541;49.894;10.886;2023-04-06T11:29:04;14.02;;;7.65;;
60700;SDS011;46541;49.894;10.886;2023-04-06T11:31:31;14.73;;;7.13;;
60700;SDS011;46541;49.894;10.886;2023-04-06T11:34:08;9.40;;;6.43;;
60700;SDS011;46541;49.894;10.886;2023-04-06T11:36:39;16.88;;;8.88;;
60700;SDS011;46541;49.894;10.886;2023-04-06T11:39:07;25.73;;;11.80;;
60700;SDS011;46541;49.894;10.886;2023-04-06T11:41:34;21.88;;;8.48;;
60700;SDS011;46541;49.894;10.886;2023-04-06T11:44:02;10.98;;;7.38;;
60700;SDS011;46541;49.894;10.886;2023-04-06T11:46:29;11.43;;;6.50;;
60700;SDS011;46541;49.894;10.886;2023-04-06T11:48:59;9.45;;;6.65;;
60700;SDS011;46541;49.894;10.886;2023-04-06T11:51:27;13.35;;;7.65;;
60700;SDS011;46541;49.894;10.886;2023-04-06T11:53:54;11.93;;;7.03;;
60700;SDS011;46541;49.894;10.886;2023-04-06T11:58:58;9.55;;;6.43;;
60700;SDS011;46541;49.894;10.886;2023-04-06T12:01:28;11.13;;;7.03;;
60700;SDS011;46541;49.894;10.886;2023-04-06T12:03:57;9.95;;;6.22;;
60700;SDS011;46541;49.894;10.886;2023-04-06T12:06:25;9.43;;;6.50;;
60700;SDS011;46541;49.894;10.886;2023-04-06T12:08:52;10.30;;;6.57;;
60700;SDS011;46541;49.894;10.886;2023-04-06T12:11:18;10.75;;;6.45;;
60700;SDS011;46541;49.894;10.886;2023-04-06T12:13:47;10.25;;;6.55;;
60700;SDS011;46541;49.894;10.886;2023-04-06T12:16:15;14.30;;;7.10;;
60700;SDS011;46541;49.894;10.886;2023-04-06T12:18:42;10.15;;;6.82;;
60700;SDS011;46541;49.894;10.886;2023-04-06T12:21:08;9.93;;;6.40;;
60700;SDS011;46541;49.894;10.886;2023-04-06T12:23:35;9.15;;;6.53;;
60700;SDS011;46541;49.894;10.886;2023-04-06T12:26:02;11.68;;;6.97;;
60700;SDS011;46541;49.894;10.886;2023-04-06T12:28:29;10.48;;;6.85;;
60700;SDS011;46541;49.894;10.886;2023-04-06T12:30:56;9.95;;;6.68;;
60700;SDS011;46541;49.894;10.886;2023-04-06T12:33:23;10.25;;;6.75;;
60700;SDS011;46541;49.894;10.886;2023-04-06T12:35:50;12.18;;;7.30;;
60700;SDS011;46541;49.894;10.886;2023-04-06T12:38:16;12.50;;;7.45;;
60700;SDS011;46541;49.894;10.886;2023-04-06T12:40:43;9.82;;;7.03;;
60700;SDS011;46541;49.894;10.886;2023-04-06T12:43:10;12.20;;;7.57;;
60700;SDS011;46541;49.894;10.886;2023-04-06T12:45:39;10.80;;;6.15;;
60700;SDS011;46541;49.894;10.886;2023-04-06T12:48:06;11.35;;;6.85;;
60700;SDS011;46541;49.894;10.886;2023-04-06T12:50:33;13.10;;;6.90;;
60700;SDS011;46541;49.894;10.886;2023-04-06T12:53:00;9.30;;;6.20;;
60700;SDS011;46541;49.894;10.886;2023-04-06T12:55:29;10.18;;;6.63;;
60700;SDS011;46541;49.894;10.886;2023-04-06T12:57:56;16.25;;;8.20;;
60700;SDS011;46541;49.894;10.886;2023-04-06T13:00:22;29.33;;;11.88;;
60700;SDS011;46541;49.894;10.886;2023-04-06T13:02:49;11.90;;;6.90;;
60700;SDS011;46541;49.894;10.886;2023-04-06T13:05:16;10.32;;;6.80;;
60700;SDS011;46541;49.894;10.886;2023-04-06T13:07:45;10.10;;;6.95;;
60700;SDS011;46541;49.894;10.886;2023-04-06T13:10:12;9.90;;;6.47;;
60700;SDS011;46541;49.894;10.886;2023-04-06T13:12:39;10.75;;;7.47;;
60700;SDS011;46541;49.894;10.886;2023-04-06T13:15:06;18.35;;;6.82;;
60700;SDS011;46541;49.894;10.886;2023-04-06T13:17:33;10.90;;;6.43;;
60700;SDS011;46541;49.894;10.886;2023-04-06T13:20:00;8.73;;;6.03;;
60700;SDS011;46541;49.894;10.886;2023-04-06T13:22:27;10.32;;;6.30;;
60700;SDS011;46541;49.894;10.886;2023-04-06T13:24:54;8.32;;;5.93;;
60700;SDS011;46541;49.894;10.886;2023-04-06T13:27:20;10.57;;;6.10;;
60700;SDS011;46541;49.894;10.886;2023-04-06T13:29:47;10.45;;;6.00;;
60700;SDS011;46541;49.894;10.886;2023-04-06T13:32:14;11.93;;;6.35;;
60700;SDS011;46541;49.894;10.886;2023-04-06T13:34:41;11.13;;;6.07;;
60700;SDS011;46541;49.894;10.886;2023-04-06T13:37:14;13.27;;;6.65;;
60700;SDS011;46541;49.894;10.886;2023-04-06T13:39:41;10.55;;;6.53;;
60700;SDS011;46541;49.894;10.886;2023-04-06T13:42:08;9.88;;;6.13;;
60700;SDS011;46541;49.894;10.886;2023-04-06T13:44:36;10.60;;;6.72;;
60700;SDS011;46541;49.894;10.886;2023-04-06T13:47:02;21.63;;;7.72;;
60700;SDS011;46541;49.894;10.886;2023-04-06T13:49:29;11.88;;;6.72;;
60700;SDS011;46541;49.894;10.886;2023-04-06T13:51:56;10.32;;;6.78;;
60700;SDS011;46541;49.894;10.886;2023-04-06T13:54:23;10.48;;;6.90;;
60700;SDS011;46541;49.894;10.886;2023-04-06T13:56:52;10.43;;;6.03;;
60700;SDS011;46541;49.894;10.886;2023-04-06T13:59:18;11.73;;;6.70;;
60700;SDS011;46541;49.894;10.886;2023-04-06T14:01:45;11.07;;;6.55;;
60700;SDS011;46541;49.894;10.886;2023-04-06T14:04:13;8.63;;;5.85;;
60700;SDS011;46541;49.894;10.886;2023-04-06T14:06:40;12.63;;;5.82;;
60700;SDS011;46541;49.894;10.886;2023-04-06T14:09:07;9.40;;;6.10;;
60700;SDS011;46541;49.894;10.886;2023-04-06T14:11:33;18.92;;;7.68;;
60700;SDS011;46541;49.894;10.886;2023-04-06T14:14:01;16.60;;;6.93;;
60700;SDS011;46541;49.894;10.886;2023-04-06T14:16:27;10.18;;;6.22;;
60700;SDS011;46541;49.894;10.886;2023-04-06T14:18:54;10.38;;;6.93;;
60700;SDS011;46541;49.894;10.886;2023-04-06T14:21:23;16.80;;;6.65;;
60700;SDS011;46541;49.894;10.886;2023-04-06T14:23:50;15.25;;;6.15;;
60700;SDS011;46541;49.894;10.886;2023-04-06T14:26:18;12.90;;;6.20;;
60700;SDS011;46541;49.894;10.886;2023-04-06T14:28:45;10.60;;;5.70;;
60700;SDS011;46541;49.894;10.886;2023-04-06T14:31:13;8.45;;;6.05;;
60700;SDS011;46541;49.894;10.886;2023-04-06T14:33:41;9.90;;;6.25;;
60700;SDS011;46541;49.894;10.886;2023-04-06T14:36:09;9.10;;;6.07;;
60700;SDS011;46541;49.894;10.886;2023-04-06T14:38:36;10.65;;;7.15;;
60700;SDS011;46541;49.894;10.886;2023-04-06T14:41:03;9.35;;;6.65;;
60700;SDS011;46541;49.894;10.886;2023-04-06T14:43:29;11.13;;;6.72;;